createdAt,value
2019-05-12T00:03:27.620Z,23.50
2019-05-12T00:08:32.006Z,26.00
2019-05-12T00:13:38.538Z,28.75
2019-05-12T00:18:43.154Z,20.00
2019-05-12T00:23:50.426Z,22.75
2019-05-12T00:28:58.673Z,22.62
2019-05-12T00:34:02.850Z,22.00
2019-05-12T00:39:08.985Z,23.00
2019-05-12T00:44:15.112Z,22.00
2019-05-12T00:49:23.136Z,17.62
2019-05-12T00:54:28.410Z,14.71
2019-05-12T00:59:34.926Z,22.62
2019-05-12T01:04:38.661Z,28.00
2019-05-12T01:09:45.147Z,20.12
2019-05-12T01:14:53.230Z,21.75
2019-05-12T01:20:01.239Z,22.37
2019-05-12T01:25:08.383Z,24.00
2019-05-12T01:30:18.110Z,20.62
2019-05-12T01:35:28.188Z,23.25
2019-05-12T01:40:33.523Z,20.00
2019-05-12T01:45:37.967Z,22.00
2019-05-12T01:50:47.584Z,24.43
2019-05-12T01:55:54.384Z,21.75
2019-05-12T02:00:58.838Z,21.00
2019-05-12T02:06:08.532Z,22.60
2019-05-12T02:11:14.120Z,21.43
2019-05-12T02:16:18.810Z,22.00
2019-05-12T02:21:24.835Z,22.00
2019-05-12T02:26:32.592Z,21.00
2019-05-12T02:31:39.791Z,22.00
2019-05-12T02:36:44.801Z,20.00
2019-05-12T02:41:48.570Z,23.33
2019-05-12T02:46:57.133Z,21.87
2019-05-12T02:52:01.435Z,10.67
2019-05-12T02:57:08.415Z,21.50
2019-05-12T03:02:15.367Z,22.00
2019-05-12T03:07:19.889Z,21.00
2019-05-12T03:12:25.554Z,20.33
2019-05-12T03:17:28.985Z,19.00
2019-05-12T03:22:35.314Z,20.00
2019-05-12T03:27:39.451Z,20.00
2019-05-12T03:32:47.311Z,21.33
2019-05-12T03:37:49.208Z,22.00
2019-05-12T03:42:55.327Z,18.12
2019-05-12T03:48:04.251Z,18.57
2019-05-12T03:53:10.915Z,18.00
2019-05-12T03:58:18.056Z,22.75
2019-05-12T04:03:24.788Z,17.75
2019-05-12T04:08:30.606Z,16.00
2019-05-12T04:13:35.917Z,22.00
2019-05-12T04:18:45.101Z,19.62
2019-05-12T04:23:54.805Z,16.62
2019-05-12T04:29:04.826Z,14.63
2019-05-12T04:34:14.698Z,20.12
2019-05-12T04:39:15.981Z,18.25
2019-05-12T04:44:25.141Z,14.50
2019-05-12T04:49:34.713Z,16.87
2019-05-12T04:54:39.398Z,18.25
2019-05-12T04:59:45.041Z,19.00
2019-05-12T05:04:54.637Z,12.13
2019-05-12T05:09:58.579Z,22.33
2019-05-12T05:15:09.013Z,20.64
2019-05-12T05:20:15.884Z,23.00
2019-05-12T05:25:20.158Z,22.00
2019-05-12T05:30:28.680Z,20.25
2019-05-12T05:35:39.784Z,20.00
2019-05-12T05:40:47.087Z,15.50
2019-05-12T05:45:56.115Z,18.00
2019-05-12T05:50:59.988Z,22.25
2019-05-12T05:56:08.346Z,20.00
2019-05-12T06:01:13.728Z,19.50
2019-05-12T06:06:19.032Z,15.29
2019-05-12T06:11:28.323Z,21.62
2019-05-12T06:16:30.594Z,19.00
2019-05-12T06:21:38.486Z,15.63
2019-05-12T06:26:57.084Z,19.00
2019-05-12T06:31:54.255Z,18.00
2019-05-12T06:37:02.393Z,15.00
2019-05-12T06:42:12.753Z,16.50
2019-05-12T06:47:14.381Z,15.38
2019-05-12T06:52:20.049Z,14.29
2019-05-12T06:57:28.628Z,14.71
2019-05-12T07:02:37.118Z,14.13
2019-05-12T07:07:45.916Z,12.14
2019-05-12T07:12:58.821Z,13.00
2019-05-12T07:17:55.832Z,14.14
2019-05-12T07:22:59.481Z,16.50
2019-05-12T07:28:07.826Z,15.00
2019-05-12T07:33:10.043Z,15.25
2019-05-12T07:38:20.996Z,14.20
2019-05-12T07:43:26.123Z,17.37
2019-05-12T07:48:33.446Z,16.00
2019-05-12T07:53:39.346Z,18.25
2019-05-12T07:58:47.432Z,16.43
2019-05-12T08:03:57.186Z,18.25
2019-05-12T08:08:59.173Z,14.00
2019-05-12T08:14:06.459Z,13.14
2019-05-12T08:19:17.271Z,19.62
2019-05-12T08:24:17.968Z,14.67
2019-05-12T08:29:24.049Z,14.25
2019-05-12T08:34:29.439Z,10.00
2019-05-12T08:39:33.936Z,16.00
2019-05-12T08:44:40.551Z,15.43
2019-05-12T08:49:51.199Z,14.67
2019-05-12T08:54:50.960Z,22.37
2019-05-12T09:00:02.744Z,17.00
2019-05-12T09:04:59.934Z,22.00
2019-05-12T09:10:08.434Z,20.00
2019-05-12T09:15:13.804Z,16.50
2019-05-12T09:20:17.542Z,15.25
2019-05-12T09:25:23.908Z,17.14
2019-05-12T09:30:29.577Z,15.71
2019-05-12T09:35:39.259Z,16.25
2019-05-12T09:40:43.545Z,15.00
2019-05-12T09:45:53.946Z,14.75
2019-05-12T09:51:00.742Z,13.00
2019-05-12T09:56:06.102Z,15.71
2019-05-12T10:01:09.619Z,19.25
2019-05-12T10:06:20.996Z,17.00
2019-05-12T10:11:26.916Z,20.00
2019-05-12T10:16:33.383Z,23.75
2019-05-12T10:21:39.574Z,16.75
2019-05-12T10:26:49.444Z,23.00
2019-05-12T10:31:54.556Z,19.00
2019-05-12T10:37:04.146Z,19.00
2019-05-12T10:42:13.695Z,26.25
2019-05-12T10:47:20.019Z,14.63
2019-05-12T10:52:24.400Z,18.50
2019-05-12T10:57:28.179Z,20.00
2019-05-12T11:02:33.668Z,22.00
2019-05-12T11:07:38.259Z,13.50
2019-05-12T11:12:44.159Z,23.00
2019-05-12T11:17:49.765Z,25.67
2019-05-12T11:22:58.426Z,24.12
2019-05-12T11:28:04.028Z,25.50
2019-05-12T11:33:09.726Z,28.00
2019-05-12T11:38:15.510Z,28.62
2019-05-12T11:43:19.746Z,30.00
2019-05-12T11:48:28.011Z,30.88
2019-05-12T11:53:32.887Z,27.00
2019-05-12T11:58:41.374Z,29.12
2019-05-12T12:03:48.893Z,28.25
2019-05-12T12:08:53.689Z,27.75
2019-05-12T12:14:00.407Z,25.00
2019-05-12T12:19:06.321Z,27.00
2019-05-12T12:24:13.245Z,29.25
2019-05-12T12:29:25.952Z,25.50
2019-05-12T12:34:33.160Z,24.33
2019-05-12T12:39:38.006Z,29.00
2019-05-12T12:44:41.759Z,31.00
2019-05-12T12:49:49.498Z,24.14
2019-05-12T12:54:59.358Z,26.83
2019-05-12T13:00:05.688Z,22.00
2019-05-12T13:05:09.843Z,23.00
2019-05-12T13:10:18.563Z,19.12
2019-05-12T13:15:23.639Z,20.67
2019-05-12T13:20:30.392Z,20.12
2019-05-12T13:25:38.773Z,19.37
2019-05-12T13:30:47.117Z,20.67
2019-05-12T13:35:55.592Z,20.00
2019-05-12T13:40:59.656Z,19.00
2019-05-12T13:46:07.515Z,18.75
2019-05-12T13:51:15.850Z,20.50
2019-05-12T13:56:25.840Z,19.00
2019-05-12T14:01:39.639Z,22.00
2019-05-12T14:06:40.872Z,16.71
2019-05-12T14:11:50.325Z,22.00
2019-05-12T14:16:59.424Z,19.00
2019-05-12T14:22:03.548Z,19.00
2019-05-12T14:27:10.803Z,18.33
2019-05-12T14:32:19.202Z,17.78
2019-05-12T14:37:28.505Z,20.00
2019-05-12T14:42:39.706Z,19.22
2019-05-12T14:47:43.607Z,17.12
2019-05-12T14:52:50.129Z,20.00
2019-05-12T14:57:53.347Z,17.50
2019-05-12T15:02:59.231Z,18.00
2019-05-12T15:08:04.401Z,20.75
2019-05-12T15:13:08.406Z,20.00
2019-05-12T15:18:16.712Z,19.00
2019-05-12T15:23:32.314Z,21.62
2019-05-12T15:28:33.820Z,19.00
2019-05-12T15:33:40.580Z,15.13
2019-05-12T15:38:55.725Z,19.62
2019-05-12T15:43:56.083Z,20.00
2019-05-12T15:48:59.983Z,16.00
2019-05-12T15:54:11.575Z,17.37
2019-05-12T15:59:17.445Z,17.12
2019-05-12T16:04:26.203Z,20.88
2019-05-12T16:09:34.929Z,23.50
2019-05-12T16:14:41.408Z,20.00
2019-05-12T16:19:45.704Z,21.25
2019-05-12T16:24:54.314Z,20.00
2019-05-12T16:30:04.705Z,22.13
2019-05-12T16:35:08.378Z,18.00
2019-05-12T16:40:14.067Z,20.25
2019-05-12T16:45:24.342Z,23.25
2019-05-12T16:50:29.027Z,24.00
2019-05-12T16:55:44.936Z,23.00
2019-05-12T17:00:45.214Z,20.00
2019-05-12T17:05:49.949Z,22.25
2019-05-12T17:11:01.226Z,22.00
2019-05-12T17:16:01.044Z,23.00
2019-05-12T17:21:05.267Z,21.25
2019-05-12T17:26:09.474Z,22.50
2019-05-12T17:31:17.883Z,22.00
2019-05-12T17:36:27.209Z,22.62
2019-05-12T17:41:31.587Z,23.50
2019-05-12T17:46:38.033Z,22.00
2019-05-12T17:51:46.725Z,22.78
2019-05-12T17:56:56.693Z,24.00
2019-05-12T18:02:14.830Z,22.13
2019-05-12T18:07:14.419Z,22.00
2019-05-12T18:12:19.749Z,18.87
2019-05-12T18:17:25.793Z,20.37
2019-05-12T18:22:33.862Z,23.75
2019-05-12T18:27:48.417Z,23.75
2019-05-12T18:32:47.676Z,21.67
2019-05-12T18:37:54.169Z,17.75
2019-05-12T18:43:00.263Z,15.50
2019-05-12T18:48:16.791Z,23.38
2019-05-12T18:53:27.518Z,20.12
2019-05-12T18:58:30.377Z,23.00
2019-05-12T19:03:44.785Z,16.86
2019-05-12T19:08:42.032Z,19.75
2019-05-12T19:13:51.924Z,16.33
2019-05-12T19:18:55.430Z,18.75
2019-05-12T19:23:57.909Z,20.00
2019-05-12T19:29:04.072Z,16.86
2019-05-12T19:34:19.894Z,13.43
2019-05-12T19:39:15.154Z,16.33
2019-05-12T19:44:26.338Z,19.12
2019-05-12T19:49:42.689Z,20.50
2019-05-12T19:54:36.840Z,22.00
2019-05-12T19:59:51.166Z,20.00
2019-05-12T20:04:52.128Z,13.00
2019-05-12T20:10:00.613Z,15.00
2019-05-12T20:15:05.728Z,11.43
2019-05-12T20:20:13.563Z,11.00
2019-05-12T20:25:19.606Z,11.29
2019-05-12T20:30:24.117Z,12.00
2019-05-12T20:35:33.368Z,13.14
2019-05-12T20:40:40.483Z,13.38
2019-05-12T20:45:46.219Z,14.71
2019-05-12T20:50:51.804Z,19.50
2019-05-12T20:55:56.951Z,12.00
2019-05-12T21:01:02.860Z,12.00
2019-05-12T21:06:06.459Z,14.00
2019-05-12T21:11:09.904Z,6.00
2019-05-12T21:16:19.479Z,12.14
2019-05-12T21:21:25.154Z,11.50
2019-05-12T21:26:34.621Z,13.43
2019-05-12T21:31:36.579Z,13.00
2019-05-12T21:36:40.713Z,11.60
2019-05-12T21:41:50.558Z,17.75
2019-05-12T21:46:58.942Z,12.60
2019-05-12T21:51:58.932Z,13.00
2019-05-12T21:57:05.433Z,9.57
2019-05-12T22:02:11.204Z,11.29
2019-05-12T22:07:17.780Z,16.00
2019-05-12T22:12:23.416Z,13.67
2019-05-12T22:17:26.625Z,22.33
2019-05-12T22:22:33.223Z,23.25
2019-05-12T22:27:39.173Z,15.00
2019-05-12T22:32:45.679Z,14.00
2019-05-12T22:37:49.918Z,17.00
2019-05-12T22:42:56.970Z,16.37
2019-05-12T22:48:04.247Z,12.57
2019-05-12T22:53:09.186Z,13.14
2019-05-12T22:58:20.708Z,14.57
2019-05-12T23:03:23.402Z,14.29
2019-05-12T23:08:27.512Z,15.00
2019-05-12T23:13:32.350Z,17.50
2019-05-12T23:18:36.708Z,8.50
2019-05-12T23:23:43.295Z,11.14
2019-05-12T23:28:50.126Z,15.33
2019-05-12T23:33:54.955Z,14.38
2019-05-12T23:39:02.159Z,12.00
2019-05-12T23:44:13.389Z,11.14
2019-05-12T23:49:20.234Z,11.63
2019-05-12T23:54:24.467Z,22.00
2019-05-12T23:59:28.025Z,14.25
